Bagdarin, Russia
Current Conditions -  °F | °C
As of 7:30 PM on Saturday 25 Oct 2014 (Local Time) from UIAA Reporting Station
Clear Clear  
Wind Chill: 13°   Ceiling: Unl
Heat Index: 21°   Visibility: 6mi
Dew Point: -2°   Wind: 7mph
Humidity: 36%   Direction: 350°N
Pressure: 30.27"   Gusts: NA
Location:  54.43°N, 113.6°E
Report Text: UIAA 251130Z 35003MPS 9999 SKC M06/M19 Q1025 NOSIG RMK QFE70929CLRD70
Loading
Personal Weather Stations






























Interactive Weather Map
Tropical Storm Tracking
New forecast layout! Learn more

10-Day Weather Forecast

Advertisements
Track Severe Weather on mobile